AAY72 KLAS-KRFD
Flight info
| Callsign | AAY72 |
|---|---|
| Flight time | N/A |
| Altitude | 35000 |
| Route | NIITZ4 HOCEE NAVJO Q90 DAAYE/N0439F370 Q90 WELKY VOGZZ FNLEE1 |
| Aircraft | A319/M-SDE3FGHIRWY/LB1 |
Departure
| Time | N/A |
|---|---|
| Airport | Harry Reid International Airport (KLAS) |
Arrival
| Time | 2026-04-24 03:59 |
|---|---|
| Airport | Chicago Rockford International Airport (KRFD) |
| Time | Latitude | Longitude | Altitude | Speed | Heading |
|---|---|---|---|---|---|
| 2026-04-24 01:49 | 36.78018 | -109.75022 | 34877 ft | 511 kts | 63° |
| 2026-04-24 01:50 | 36.79397 | -109.70887 | 34876 ft | 511 kts | 63° |
| 2026-04-24 01:50 | 36.82092 | -109.62736 | 34881 ft | 511 kts | 63° |
| 2026-04-24 01:51 | 36.84801 | -109.54515 | 34882 ft | 512 kts | 63° |
| 2026-04-24 01:51 | 36.87522 | -109.46246 | 34893 ft | 520 kts | 63° |
| 2026-04-24 01:52 | 36.90311 | -109.37788 | 34895 ft | 531 kts | 63° |
| 2026-04-24 01:52 | 36.93114 | -109.29219 | 34901 ft | 533 kts | 64° |
| 2026-04-24 01:53 | 36.95916 | -109.20619 | 34898 ft | 534 kts | 64° |
| 2026-04-24 01:53 | 36.98708 | -109.12008 | 34894 ft | 535 kts | 64° |
| 2026-04-24 01:54 | 37.01507 | -109.03382 | 34903 ft | 535 kts | 64° |
| 2026-04-24 01:54 | 37.04301 | -108.94758 | 34908 ft | 535 kts | 64° |
| 2026-04-24 01:55 | 37.07069 | -108.86164 | 34941 ft | 535 kts | 64° |
| 2026-04-24 01:55 | 37.09856 | -108.77508 | 34961 ft | 536 kts | 64° |
| 2026-04-24 01:56 | 37.12615 | -108.68918 | 34989 ft | 537 kts | 64° |
| 2026-04-24 01:56 | 37.15400 | -108.60216 | 34997 ft | 538 kts | 64° |
| 2026-04-24 01:57 | 37.18180 | -108.51495 | 34991 ft | 538 kts | 64° |
| 2026-04-24 01:57 | 37.20950 | -108.42760 | 34987 ft | 539 kts | 64° |
| 2026-04-24 01:58 | 37.23716 | -108.34012 | 34972 ft | 540 kts | 64° |
| 2026-04-24 01:58 | 37.26489 | -108.25244 | 34966 ft | 540 kts | 64° |
| 2026-04-24 01:59 | 37.29241 | -108.16524 | 34958 ft | 541 kts | 64° |
| 2026-04-24 01:59 | 37.32000 | -108.07730 | 34971 ft | 541 kts | 64° |
| 2026-04-24 02:00 | 37.34756 | -107.98926 | 34973 ft | 541 kts | 64° |
| 2026-04-24 02:00 | 37.37514 | -107.90092 | 34985 ft | 543 kts | 64° |
| 2026-04-24 02:01 | 37.40254 | -107.81249 | 34989 ft | 543 kts | 64° |
| 2026-04-24 02:01 | 37.42998 | -107.72395 | 34996 ft | 544 kts | 64° |
| 2026-04-24 02:02 | 37.45745 | -107.63521 | 34984 ft | 544 kts | 64° |
| 2026-04-24 02:02 | 37.48461 | -107.54697 | 34965 ft | 544 kts | 64° |
| 2026-04-24 02:03 | 37.52559 | -107.41337 | 34975 ft | 545 kts | 65° |
| 2026-04-24 02:03 | 37.55277 | -107.32413 | 34978 ft | 545 kts | 65° |
| 2026-04-24 02:04 | 37.57999 | -107.23488 | 34980 ft | 546 kts | 65° |
| 2026-04-24 02:04 | 37.60717 | -107.14544 | 34981 ft | 546 kts | 64° |
| 2026-04-24 02:05 | 37.63437 | -107.05593 | 34976 ft | 547 kts | 65° |
| 2026-04-24 02:05 | 37.66123 | -106.96679 | 34965 ft | 547 kts | 65° |
| 2026-04-24 02:06 | 37.68813 | -106.87700 | 34953 ft | 547 kts | 65° |
| 2026-04-24 02:06 | 37.71500 | -106.78707 | 34949 ft | 547 kts | 65° |
| 2026-04-24 02:07 | 37.74194 | -106.69710 | 34962 ft | 547 kts | 65° |
| 2026-04-24 02:07 | 37.76879 | -106.60719 | 34981 ft | 547 kts | 65° |
| 2026-04-24 02:08 | 37.79550 | -106.51722 | 34995 ft | 546 kts | 65° |
| 2026-04-24 02:08 | 37.82212 | -106.42728 | 35015 ft | 546 kts | 65° |
| 2026-04-24 02:09 | 37.84858 | -106.33731 | 35012 ft | 546 kts | 65° |
| 2026-04-24 02:09 | 37.87478 | -106.24790 | 34984 ft | 545 kts | 65° |
| 2026-04-24 02:10 | 37.90122 | -106.15793 | 34948 ft | 545 kts | 65° |
| 2026-04-24 02:10 | 37.92760 | -106.06784 | 34903 ft | 545 kts | 65° |
| 2026-04-24 02:11 | 37.95373 | -105.97770 | 34871 ft | 545 kts | 66° |
| 2026-04-24 02:11 | 37.97983 | -105.88748 | 34874 ft | 545 kts | 66° |
| 2026-04-24 02:12 | 38.00590 | -105.79734 | 34877 ft | 545 kts | 66° |
| 2026-04-24 02:12 | 38.02680 | -105.72200 | 34882 ft | 546 kts | 68° |
| 2026-04-24 02:13 | 38.04958 | -105.62994 | 34881 ft | 546 kts | 70° |
| 2026-04-24 02:13 | 38.07149 | -105.53769 | 34877 ft | 546 kts | 69° |
| 2026-04-24 02:14 | 38.09394 | -105.44581 | 34876 ft | 545 kts | 69° |
| 2026-04-24 02:14 | 38.11691 | -105.35384 | 34870 ft | 545 kts | 69° |
| 2026-04-24 02:15 | 38.13980 | -105.26206 | 34860 ft | 545 kts | 69° |
| 2026-04-24 02:15 | 38.16238 | -105.17019 | 34840 ft | 544 kts | 69° |
| 2026-04-24 02:16 | 38.18475 | -105.07828 | 34813 ft | 545 kts | 69° |
| 2026-04-24 02:16 | 38.20712 | -104.98631 | 34797 ft | 544 kts | 69° |
| 2026-04-24 02:17 | 38.22947 | -104.89431 | 34795 ft | 545 kts | 69° |
| 2026-04-24 02:17 | 38.25176 | -104.80219 | 34813 ft | 545 kts | 70° |
| 2026-04-24 02:18 | 38.27381 | -104.71062 | 34835 ft | 545 kts | 70° |
| 2026-04-24 02:18 | 38.29590 | -104.61831 | 34860 ft | 545 kts | 70° |
| 2026-04-24 02:19 | 38.31789 | -104.52585 | 34866 ft | 545 kts | 70° |
| 2026-04-24 02:19 | 38.33986 | -104.43333 | 34864 ft | 545 kts | 70° |
| 2026-04-24 02:20 | 38.36185 | -104.34096 | 34842 ft | 545 kts | 70° |
| 2026-04-24 02:20 | 38.38370 | -104.24858 | 34812 ft | 544 kts | 70° |
| 2026-04-24 02:21 | 38.40543 | -104.15621 | 34783 ft | 543 kts | 70° |
| 2026-04-24 02:21 | 38.42703 | -104.06395 | 34761 ft | 542 kts | 70° |
| 2026-04-24 02:22 | 38.44847 | -103.97176 | 34767 ft | 541 kts | 70° |
| 2026-04-24 02:22 | 38.46992 | -103.87977 | 34775 ft | 540 kts | 70° |
| 2026-04-24 02:23 | 38.49118 | -103.78792 | 34791 ft | 539 kts | 71° |
| 2026-04-24 02:23 | 38.51228 | -103.69622 | 34790 ft | 538 kts | 71° |
| 2026-04-24 02:24 | 38.53318 | -103.60514 | 34798 ft | 537 kts | 71° |
| 2026-04-24 02:24 | 38.55416 | -103.51365 | 34798 ft | 537 kts | 71° |
| 2026-04-24 02:25 | 38.57501 | -103.42214 | 34793 ft | 536 kts | 71° |
| 2026-04-24 02:25 | 38.59580 | -103.33065 | 34788 ft | 536 kts | 71° |
| 2026-04-24 02:26 | 38.61651 | -103.23903 | 34788 ft | 536 kts | 71° |
| 2026-04-24 02:26 | 38.63705 | -103.14752 | 34785 ft | 535 kts | 71° |
| 2026-04-24 02:27 | 38.65749 | -103.05617 | 34785 ft | 534 kts | 71° |
| 2026-04-24 02:27 | 38.67792 | -102.96483 | 34790 ft | 533 kts | 71° |
| 2026-04-24 02:28 | 38.69811 | -102.87428 | 34796 ft | 532 kts | 72° |
| 2026-04-24 02:28 | 38.71826 | -102.78333 | 34799 ft | 531 kts | 72° |
| 2026-04-24 02:29 | 38.73828 | -102.69237 | 34803 ft | 530 kts | 72° |
| 2026-04-24 02:29 | 38.75825 | -102.60143 | 34804 ft | 530 kts | 72° |
| 2026-04-24 02:30 | 38.77816 | -102.51052 | 34804 ft | 530 kts | 72° |
| 2026-04-24 02:30 | 38.79797 | -102.41963 | 34807 ft | 529 kts | 72° |
| 2026-04-24 02:31 | 38.81762 | -102.32878 | 34812 ft | 529 kts | 72° |
| 2026-04-24 02:31 | 38.83719 | -102.23801 | 34821 ft | 528 kts | 72° |
| 2026-04-24 02:32 | 38.85672 | -102.14722 | 34820 ft | 527 kts | 73° |
| 2026-04-24 02:32 | 38.87609 | -102.05671 | 34814 ft | 526 kts | 73° |
| 2026-04-24 02:33 | 38.89537 | -101.96625 | 34817 ft | 525 kts | 73° |
| 2026-04-24 02:33 | 38.91466 | -101.87584 | 34817 ft | 524 kts | 73° |
| 2026-04-24 02:34 | 38.93384 | -101.78554 | 34815 ft | 524 kts | 73° |
| 2026-04-24 02:34 | 38.95276 | -101.69585 | 34814 ft | 523 kts | 73° |
| 2026-04-24 02:35 | 38.97164 | -101.60548 | 34814 ft | 523 kts | 74° |
| 2026-04-24 02:35 | 38.99042 | -101.51521 | 34811 ft | 523 kts | 74° |
| 2026-04-24 02:36 | 39.00913 | -101.42488 | 34806 ft | 523 kts | 74° |
| 2026-04-24 02:36 | 39.02791 | -101.33456 | 34804 ft | 523 kts | 75° |
| 2026-04-24 02:37 | 39.04665 | -101.24423 | 34796 ft | 522 kts | 75° |
| 2026-04-24 02:37 | 39.06521 | -101.15385 | 34810 ft | 522 kts | 75° |
| 2026-04-24 02:38 | 39.08369 | -101.06345 | 34816 ft | 522 kts | 75° |
| 2026-04-24 02:38 | 39.10222 | -100.97296 | 34833 ft | 523 kts | 75° |
| 2026-04-24 02:39 | 39.12057 | -100.88231 | 34830 ft | 523 kts | 75° |
| 2026-04-24 02:39 | 39.13883 | -100.79152 | 34832 ft | 524 kts | 76° |
| 2026-04-24 02:40 | 39.15703 | -100.70063 | 34826 ft | 524 kts | 76° |
| 2026-04-24 02:40 | 39.17526 | -100.60969 | 34808 ft | 525 kts | 76° |
| 2026-04-24 02:41 | 39.19329 | -100.51910 | 34794 ft | 525 kts | 76° |
| 2026-04-24 02:41 | 39.21138 | -100.42789 | 34765 ft | 525 kts | 76° |
| 2026-04-24 02:42 | 39.22943 | -100.33662 | 34749 ft | 525 kts | 76° |
| 2026-04-24 02:42 | 39.24772 | -100.24536 | 34753 ft | 526 kts | 75° |
| 2026-04-24 02:43 | 39.26957 | -100.15526 | 34771 ft | 526 kts | 71° |
| 2026-04-24 02:43 | 39.29365 | -100.06600 | 34794 ft | 527 kts | 71° |
| 2026-04-24 02:44 | 39.31710 | -99.97641 | 34820 ft | 527 kts | 72° |
| 2026-04-24 02:44 | 39.33947 | -99.88633 | 34828 ft | 527 kts | 73° |
| 2026-04-24 02:45 | 39.36154 | -99.79611 | 34829 ft | 527 kts | 73° |
| 2026-04-24 02:45 | 39.38388 | -99.70588 | 34826 ft | 527 kts | 72° |
| 2026-04-24 02:46 | 39.40620 | -99.61570 | 34797 ft | 527 kts | 73° |
| 2026-04-24 02:46 | 39.42849 | -99.52537 | 34767 ft | 527 kts | 73° |
| 2026-04-24 02:47 | 39.45070 | -99.43508 | 34734 ft | 527 kts | 73° |
| 2026-04-24 02:47 | 39.47272 | -99.34501 | 34747 ft | 528 kts | 73° |
| 2026-04-24 02:48 | 39.49486 | -99.25443 | 34752 ft | 528 kts | 73° |
| 2026-04-24 02:48 | 39.51686 | -99.16364 | 34750 ft | 528 kts | 73° |
| 2026-04-24 02:49 | 39.53869 | -99.07348 | 34738 ft | 528 kts | 73° |
| 2026-04-24 02:49 | 39.56071 | -98.98189 | 34721 ft | 528 kts | 74° |
| 2026-04-24 02:50 | 39.58257 | -98.89087 | 34699 ft | 528 kts | 74° |
| 2026-04-24 02:50 | 39.60436 | -98.79984 | 34691 ft | 528 kts | 74° |
| 2026-04-24 02:51 | 39.62603 | -98.70871 | 34689 ft | 528 kts | 74° |
| 2026-04-24 02:51 | 39.64772 | -98.61766 | 34691 ft | 528 kts | 75° |
| 2026-04-24 02:52 | 39.66910 | -98.52707 | 34690 ft | 528 kts | 75° |
| 2026-04-24 02:52 | 39.69051 | -98.43584 | 34686 ft | 528 kts | 75° |
| 2026-04-24 02:53 | 39.71187 | -98.34455 | 34683 ft | 527 kts | 75° |
| 2026-04-24 02:53 | 39.73316 | -98.25340 | 34689 ft | 526 kts | 75° |
| 2026-04-24 02:54 | 39.75432 | -98.16244 | 34691 ft | 525 kts | 76° |
| 2026-04-24 02:54 | 39.77529 | -98.07176 | 34696 ft | 523 kts | 76° |
| 2026-04-24 02:55 | 39.79611 | -97.98115 | 34694 ft | 521 kts | 76° |
| 2026-04-24 02:55 | 39.81686 | -97.89103 | 34695 ft | 519 kts | 76° |
| 2026-04-24 02:56 | 39.83404 | -97.81622 | 34695 ft | 518 kts | 76° |
| 2026-04-24 02:56 | 39.85787 | -97.71180 | 34710 ft | 517 kts | 77° |
| 2026-04-24 02:57 | 39.87819 | -97.62224 | 34719 ft | 516 kts | 77° |
| 2026-04-24 02:57 | 39.89826 | -97.53272 | 34727 ft | 514 kts | 78° |
| 2026-04-24 02:58 | 39.91817 | -97.44317 | 34722 ft | 513 kts | 78° |
| 2026-04-24 02:58 | 39.93478 | -97.36897 | 34711 ft | 513 kts | 78° |
| 2026-04-24 02:59 | 39.95466 | -97.27974 | 34690 ft | 513 kts | 78° |
| 2026-04-24 02:59 | 39.97447 | -97.19048 | 34671 ft | 512 kts | 79° |
| 2026-04-24 03:00 | 39.99411 | -97.10102 | 34647 ft | 512 kts | 79° |
| 2026-04-24 03:00 | 40.01365 | -97.01170 | 34651 ft | 512 kts | 79° |
| 2026-04-24 03:01 | 40.03320 | -96.92225 | 34650 ft | 512 kts | 80° |
| 2026-04-24 03:01 | 40.05263 | -96.83288 | 34642 ft | 512 kts | 80° |
| 2026-04-24 03:02 | 40.07199 | -96.74334 | 34678 ft | 513 kts | 81° |
| 2026-04-24 03:02 | 40.09136 | -96.65368 | 34687 ft | 513 kts | 81° |
| 2026-04-24 03:03 | 40.11064 | -96.56407 | 34683 ft | 512 kts | 81° |
| 2026-04-24 03:03 | 40.12971 | -96.47499 | 34671 ft | 511 kts | 81° |
| 2026-04-24 03:04 | 40.14880 | -96.38548 | 34649 ft | 511 kts | 81° |
| 2026-04-24 03:04 | 40.16773 | -96.29612 | 34625 ft | 510 kts | 82° |
| 2026-04-24 03:05 | 40.18540 | -96.20660 | 34630 ft | 507 kts | 84° |
| 2026-04-24 03:05 | 40.20174 | -96.11712 | 34627 ft | 505 kts | 84° |
| 2026-04-24 03:06 | 40.21802 | -96.02779 | 34644 ft | 504 kts | 84° |
| 2026-04-24 03:06 | 40.23445 | -95.93935 | 34658 ft | 503 kts | 84° |
| 2026-04-24 03:07 | 40.25099 | -95.85069 | 34665 ft | 501 kts | 84° |
| 2026-04-24 03:07 | 40.26738 | -95.76205 | 34676 ft | 500 kts | 84° |
| 2026-04-24 03:08 | 40.29172 | -95.62918 | 34671 ft | 499 kts | 84° |
| 2026-04-24 03:09 | 40.30781 | -95.54079 | 34670 ft | 499 kts | 84° |
| 2026-04-24 03:09 | 40.32385 | -95.45242 | 34662 ft | 498 kts | 84° |
| 2026-04-24 03:10 | 40.33982 | -95.36407 | 34647 ft | 498 kts | 84° |
| 2026-04-24 03:10 | 40.35571 | -95.27570 | 34650 ft | 498 kts | 84° |
| 2026-04-24 03:11 | 40.37145 | -95.18795 | 34660 ft | 497 kts | 84° |
| 2026-04-24 03:11 | 40.38717 | -95.09961 | 34665 ft | 497 kts | 84° |
| 2026-04-24 03:12 | 40.40279 | -95.01122 | 34673 ft | 497 kts | 84° |
| 2026-04-24 03:12 | 40.41842 | -94.92276 | 34669 ft | 497 kts | 84° |
| 2026-04-24 03:13 | 40.43398 | -94.83436 | 34677 ft | 497 kts | 83° |
| 2026-04-24 03:13 | 40.44946 | -94.74584 | 34661 ft | 497 kts | 83° |
| 2026-04-24 03:14 | 40.46481 | -94.65739 | 34655 ft | 497 kts | 83° |
| 2026-04-24 03:14 | 40.48010 | -94.56892 | 34641 ft | 497 kts | 83° |
| 2026-04-24 03:15 | 40.49530 | -94.48053 | 34627 ft | 496 kts | 83° |
| 2026-04-24 03:15 | 40.51044 | -94.39200 | 34632 ft | 496 kts | 83° |
| 2026-04-24 03:16 | 40.52548 | -94.30416 | 34653 ft | 496 kts | 83° |
| 2026-04-24 03:16 | 40.54050 | -94.21584 | 34685 ft | 495 kts | 83° |
| 2026-04-24 03:17 | 40.55537 | -94.12751 | 34724 ft | 494 kts | 83° |
| 2026-04-24 03:17 | 40.57019 | -94.03918 | 34749 ft | 495 kts | 83° |
| 2026-04-24 03:18 | 40.58497 | -93.95079 | 34757 ft | 495 kts | 83° |
| 2026-04-24 03:18 | 40.59966 | -93.86238 | 34753 ft | 495 kts | 83° |
| 2026-04-24 03:19 | 40.61430 | -93.77383 | 34748 ft | 495 kts | 82° |
| 2026-04-24 03:19 | 40.62890 | -93.68542 | 34726 ft | 494 kts | 82° |
| 2026-04-24 03:20 | 40.64357 | -93.59699 | 34708 ft | 495 kts | 80° |
| 2026-04-24 03:20 | 40.66969 | -93.51273 | 34691 ft | 502 kts | 64° |
| 2026-04-24 03:21 | 40.70370 | -93.43265 | 34685 ft | 500 kts | 64° |
| 2026-04-24 03:21 | 40.73751 | -93.35263 | 34705 ft | 499 kts | 64° |
| 2026-04-24 03:22 | 40.77111 | -93.27268 | 34714 ft | 497 kts | 64° |
| 2026-04-24 03:22 | 40.80455 | -93.19282 | 34716 ft | 496 kts | 64° |
| 2026-04-24 03:23 | 40.83787 | -93.11322 | 34741 ft | 495 kts | 64° |
| 2026-04-24 03:23 | 40.87085 | -93.03425 | 34747 ft | 494 kts | 64° |
| 2026-04-24 03:24 | 40.90388 | -92.95479 | 34736 ft | 493 kts | 64° |
| 2026-04-24 03:24 | 40.93686 | -92.87533 | 34723 ft | 492 kts | 64° |
| 2026-04-24 03:25 | 40.96978 | -92.79588 | 34698 ft | 492 kts | 64° |
| 2026-04-24 03:25 | 41.00255 | -92.71635 | 34708 ft | 492 kts | 63° |
| 2026-04-24 03:26 | 41.03535 | -92.63685 | 34732 ft | 492 kts | 63° |
| 2026-04-24 03:26 | 41.06820 | -92.55725 | 34598 ft | 493 kts | 63° |
| 2026-04-24 03:26 | 41.08460 | -92.51726 | 34357 ft | 493 kts | 63° |
| 2026-04-24 03:27 | 41.10095 | -92.47727 | 34122 ft | 494 kts | 63° |
| 2026-04-24 03:27 | 41.11733 | -92.43720 | 33881 ft | 495 kts | 63° |
| 2026-04-24 03:27 | 41.13372 | -92.39711 | 33637 ft | 495 kts | 63° |
| 2026-04-24 03:27 | 41.15012 | -92.35687 | 33367 ft | 496 kts | 64° |
| 2026-04-24 03:28 | 41.16653 | -92.31647 | 33095 ft | 497 kts | 64° |
| 2026-04-24 03:28 | 41.18297 | -92.27599 | 32824 ft | 498 kts | 63° |
| 2026-04-24 03:28 | 41.19937 | -92.23559 | 32549 ft | 499 kts | 63° |
| 2026-04-24 03:28 | 41.21585 | -92.19497 | 32278 ft | 499 kts | 63° |
| 2026-04-24 03:29 | 41.23236 | -92.15426 | 31993 ft | 500 kts | 63° |
| 2026-04-24 03:29 | 41.24884 | -92.11355 | 31742 ft | 501 kts | 63° |
| 2026-04-24 03:29 | 41.26530 | -92.07281 | 31485 ft | 498 kts | 64° |
| 2026-04-24 03:29 | 41.28141 | -92.03279 | 31230 ft | 497 kts | 64° |
| 2026-04-24 03:30 | 41.29769 | -91.99228 | 30993 ft | 496 kts | 64° |
| 2026-04-24 03:30 | 41.31394 | -91.95177 | 30741 ft | 497 kts | 64° |
| 2026-04-24 03:30 | 41.33021 | -91.91117 | 30507 ft | 497 kts | 64° |
| 2026-04-24 03:30 | 41.34645 | -91.87057 | 30269 ft | 498 kts | 64° |
| 2026-04-24 03:31 | 41.36278 | -91.82980 | 30033 ft | 498 kts | 64° |
| 2026-04-24 03:31 | 41.37906 | -91.78912 | 29796 ft | 497 kts | 64° |
| 2026-04-24 03:31 | 41.39522 | -91.74859 | 29526 ft | 496 kts | 64° |
| 2026-04-24 03:31 | 41.41138 | -91.70804 | 29249 ft | 494 kts | 64° |
| 2026-04-24 03:32 | 41.42745 | -91.66768 | 28972 ft | 492 kts | 64° |
| 2026-04-24 03:32 | 41.44344 | -91.62761 | 28701 ft | 489 kts | 64° |
| 2026-04-24 03:32 | 41.45943 | -91.58756 | 28433 ft | 487 kts | 64° |
| 2026-04-24 03:32 | 41.47525 | -91.54777 | 28174 ft | 485 kts | 64° |
| 2026-04-24 03:33 | 41.49097 | -91.50804 | 27914 ft | 483 kts | 64° |
| 2026-04-24 03:33 | 41.50658 | -91.46847 | 27646 ft | 481 kts | 64° |
| 2026-04-24 03:33 | 41.52214 | -91.42904 | 27396 ft | 479 kts | 64° |
| 2026-04-24 03:33 | 41.53763 | -91.38971 | 27138 ft | 477 kts | 64° |
| 2026-04-24 03:34 | 41.55299 | -91.35062 | 26885 ft | 475 kts | 64° |
| 2026-04-24 03:34 | 41.56831 | -91.31159 | 26628 ft | 473 kts | 64° |
| 2026-04-24 03:34 | 41.58355 | -91.27274 | 26374 ft | 471 kts | 64° |
| 2026-04-24 03:34 | 41.59856 | -91.23449 | 26129 ft | 470 kts | 64° |
| 2026-04-24 03:35 | 41.61368 | -91.19591 | 25883 ft | 468 kts | 64° |
| 2026-04-24 03:35 | 41.62871 | -91.15740 | 25641 ft | 466 kts | 64° |
| 2026-04-24 03:35 | 41.64369 | -91.11902 | 25397 ft | 465 kts | 64° |
| 2026-04-24 03:35 | 41.65864 | -91.08076 | 25160 ft | 463 kts | 64° |
| 2026-04-24 03:36 | 41.67349 | -91.04269 | 24922 ft | 461 kts | 64° |
| 2026-04-24 03:36 | 41.68830 | -91.00468 | 24689 ft | 460 kts | 64° |
| 2026-04-24 03:36 | 41.70300 | -90.96679 | 24456 ft | 458 kts | 64° |
| 2026-04-24 03:36 | 41.71768 | -90.92902 | 24231 ft | 457 kts | 64° |
| 2026-04-24 03:37 | 41.73230 | -90.89139 | 24007 ft | 455 kts | 64° |
| 2026-04-24 03:37 | 41.74686 | -90.85384 | 23788 ft | 453 kts | 65° |
| 2026-04-24 03:37 | 41.76043 | -90.81592 | 23658 ft | 449 kts | 71° |
| 2026-04-24 03:37 | 41.77022 | -90.77626 | 23160 ft | 449 kts | 76° |
| 2026-04-24 03:38 | 41.77917 | -90.73648 | 22451 ft | 441 kts | 76° |
| 2026-04-24 03:38 | 41.78787 | -90.69722 | 21890 ft | 438 kts | 76° |
| 2026-04-24 03:38 | 41.79646 | -90.65820 | 21331 ft | 436 kts | 77° |
| 2026-04-24 03:38 | 41.80502 | -90.61929 | 20744 ft | 435 kts | 77° |
| 2026-04-24 03:39 | 41.81359 | -90.58052 | 20190 ft | 433 kts | 77° |
| 2026-04-24 03:39 | 41.82210 | -90.54207 | 19840 ft | 428 kts | 77° |
| 2026-04-24 03:39 | 41.83056 | -90.50391 | 19297 ft | 427 kts | 77° |
| 2026-04-24 03:39 | 41.83903 | -90.46572 | 18740 ft | 427 kts | 77° |
| 2026-04-24 03:40 | 41.84746 | -90.42750 | 18184 ft | 427 kts | 77° |
| 2026-04-24 03:40 | 41.85582 | -90.38940 | 17574 ft | 426 kts | 77° |
| 2026-04-24 03:40 | 41.86415 | -90.35137 | 17019 ft | 424 kts | 77° |
| 2026-04-24 03:40 | 41.87245 | -90.31347 | 16468 ft | 422 kts | 77° |
| 2026-04-24 03:41 | 41.88071 | -90.27597 | 15957 ft | 419 kts | 76° |
| 2026-04-24 03:41 | 41.88968 | -90.23929 | 15690 ft | 406 kts | 74° |
| 2026-04-24 03:41 | 41.89922 | -90.20382 | 15449 ft | 402 kts | 73° |
| 2026-04-24 03:41 | 41.90909 | -90.16885 | 15201 ft | 399 kts | 72° |
| 2026-04-24 03:42 | 41.91900 | -90.13408 | 14951 ft | 398 kts | 72° |
| 2026-04-24 03:42 | 41.92876 | -90.09942 | 14715 ft | 396 kts | 73° |
| 2026-04-24 03:42 | 41.93515 | -90.07643 | 14551 ft | 396 kts | 73° |
| 2026-04-24 03:42 | 41.94771 | -90.03060 | 14233 ft | 394 kts | 73° |
| 2026-04-24 03:43 | 41.95704 | -89.99605 | 14002 ft | 393 kts | 73° |
| 2026-04-24 03:43 | 41.96631 | -89.96155 | 13779 ft | 391 kts | 73° |
| 2026-04-24 03:43 | 41.97551 | -89.92726 | 13331 ft | 388 kts | 73° |
| 2026-04-24 03:43 | 41.98462 | -89.89332 | 12794 ft | 385 kts | 73° |
| 2026-04-24 03:44 | 41.99367 | -89.85960 | 12292 ft | 381 kts | 73° |
| 2026-04-24 03:44 | 42.00266 | -89.82614 | 11792 ft | 378 kts | 73° |
| 2026-04-24 03:44 | 42.01152 | -89.79306 | 11283 ft | 375 kts | 74° |
| 2026-04-24 03:44 | 42.02034 | -89.76012 | 10771 ft | 373 kts | 74° |
| 2026-04-24 03:45 | 42.02900 | -89.72776 | 10579 ft | 357 kts | 74° |
| 2026-04-24 03:45 | 42.03446 | -89.70743 | 10485 ft | 343 kts | 74° |
| 2026-04-24 03:45 | 42.04500 | -89.66825 | 10026 ft | 326 kts | 74° |
| 2026-04-24 03:45 | 42.05003 | -89.64941 | 9772 ft | 320 kts | 75° |
| 2026-04-24 03:46 | 42.05741 | -89.62161 | 9449 ft | 308 kts | 75° |
| 2026-04-24 03:46 | 42.06421 | -89.59600 | 9309 ft | 297 kts | 75° |
| 2026-04-24 03:46 | 42.07109 | -89.57001 | 9063 ft | 293 kts | 75° |
| 2026-04-24 03:46 | 42.07787 | -89.54441 | 8783 ft | 289 kts | 75° |
| 2026-04-24 03:47 | 42.08458 | -89.51898 | 8498 ft | 285 kts | 76° |
| 2026-04-24 03:47 | 42.09112 | -89.49433 | 8286 ft | 275 kts | 76° |
| 2026-04-24 03:47 | 42.09749 | -89.47028 | 8033 ft | 271 kts | 76° |
| 2026-04-24 03:47 | 42.10371 | -89.44672 | 7709 ft | 270 kts | 76° |
| 2026-04-24 03:48 | 42.10999 | -89.42292 | 7370 ft | 269 kts | 76° |
| 2026-04-24 03:48 | 42.11204 | -89.41517 | 7295 ft | 267 kts | 76° |
| 2026-04-24 03:48 | 42.11845 | -89.39100 | 7002 ft | 263 kts | 76° |
| 2026-04-24 03:48 | 42.12455 | -89.36793 | 6733 ft | 261 kts | 76° |
| 2026-04-24 03:49 | 42.13061 | -89.34484 | 6452 ft | 261 kts | 76° |
| 2026-04-24 03:49 | 42.13662 | -89.32183 | 6151 ft | 260 kts | 77° |
| 2026-04-24 03:49 | 42.14261 | -89.29883 | 5838 ft | 260 kts | 77° |
| 2026-04-24 03:49 | 42.14862 | -89.27585 | 5568 ft | 259 kts | 77° |
| 2026-04-24 03:50 | 42.15289 | -89.25303 | 5365 ft | 242 kts | 98° |
| 2026-04-24 03:50 | 42.14912 | -89.23272 | 5233 ft | 210 kts | 133° |
| 2026-04-24 03:50 | 42.13895 | -89.22055 | 4836 ft | 193 kts | 165° |
| 2026-04-24 03:50 | 42.12612 | -89.21625 | 4563 ft | 184 kts | 176° |
| 2026-04-24 03:51 | 42.11369 | -89.21350 | 4277 ft | 178 kts | 176° |
| 2026-04-24 03:51 | 42.10155 | -89.21091 | 3899 ft | 176 kts | 176° |
| 2026-04-24 03:51 | 42.08947 | -89.20843 | 3546 ft | 174 kts | 177° |
| 2026-04-24 03:51 | 42.07758 | -89.20592 | 3238 ft | 173 kts | 176° |
| 2026-04-24 03:52 | 42.06567 | -89.20369 | 3038 ft | 172 kts | 176° |
| 2026-04-24 03:52 | 42.05377 | -89.20155 | 2996 ft | 173 kts | 177° |
| 2026-04-24 03:52 | 42.04184 | -89.19935 | 2996 ft | 173 kts | 176° |
| 2026-04-24 03:52 | 42.02991 | -89.19716 | 3009 ft | 173 kts | 178° |
| 2026-04-24 03:53 | 42.01829 | -89.19924 | 2999 ft | 172 kts | 208° |
| 2026-04-24 03:53 | 42.01064 | -89.21175 | 3005 ft | 185 kts | 244° |
| 2026-04-24 03:53 | 42.01092 | -89.22942 | 3004 ft | 207 kts | 281° |
| 2026-04-24 03:53 | 42.01998 | -89.24542 | 3005 ft | 229 kts | 317° |
| 2026-04-24 03:54 | 42.03473 | -89.25463 | 3011 ft | 238 kts | 334° |
| 2026-04-24 03:54 | 42.05044 | -89.26162 | 2994 ft | 238 kts | 336° |
| 2026-04-24 03:54 | 42.06616 | -89.26836 | 3025 ft | 238 kts | 337° |
| 2026-04-24 03:54 | 42.08199 | -89.27504 | 2994 ft | 234 kts | 337° |
| 2026-04-24 03:55 | 42.09725 | -89.28143 | 2992 ft | 230 kts | 337° |
| 2026-04-24 03:55 | 42.11243 | -89.28778 | 2992 ft | 228 kts | 336° |
| 2026-04-24 03:55 | 42.12790 | -89.29381 | 2994 ft | 230 kts | 341° |
| 2026-04-24 03:55 | 42.14402 | -89.29228 | 2994 ft | 238 kts | 20° |
| 2026-04-24 03:56 | 42.15681 | -89.27976 | 2996 ft | 228 kts | 59° |
| 2026-04-24 03:56 | 42.16219 | -89.26084 | 3000 ft | 204 kts | 96° |
| 2026-04-24 03:56 | 42.16227 | -89.24266 | 2882 ft | 187 kts | 104° |
| 2026-04-24 03:56 | 42.16192 | -89.22576 | 2706 ft | 169 kts | 103° |
| 2026-04-24 03:57 | 42.16200 | -89.21047 | 2349 ft | 164 kts | 94° |
| 2026-04-24 03:57 | 42.16561 | -89.19580 | 2031 ft | 162 kts | 76° |
| 2026-04-24 03:57 | 42.16992 | -89.18215 | 1868 ft | 155 kts | 76° |
| 2026-04-24 03:57 | 42.17385 | -89.16892 | 1700 ft | 149 kts | 77° |
| 2026-04-24 03:58 | 42.17800 | -89.15617 | 1484 ft | 148 kts | 68° |
| 2026-04-24 03:58 | 42.18227 | -89.14381 | 1292 ft | 140 kts | 71° |
| 2026-04-24 03:58 | 42.18612 | -89.13223 | 1047 ft | 134 kts | 73° |
| 2026-04-24 03:58 | 42.18995 | -89.12086 | 819 ft | 134 kts | 72° |
| 2026-04-24 03:59 | 42.19360 | -89.10994 | 730 ft | 115 kts | 66° |
| 2026-04-24 03:59 | 42.19622 | -89.10236 | 735 ft | 65 kts | 65° |
| 2026-04-24 03:59 | 42.19756 | -89.09850 | 738 ft | 37 kts | 65° |
| 2026-04-24 03:59 | 42.19850 | -89.09559 | 739 ft | 28 kts | 65° |
| 2026-04-24 04:00 | 42.19923 | -89.09403 | 740 ft | 15 kts | 20° |
| 2026-04-24 04:00 | 42.19995 | -89.09426 | 739 ft | 0 kts | 333° |
| 2026-04-24 04:00 | 42.19996 | -89.09427 | 739 ft | 0 kts | 333° |
| 2026-04-24 04:00 | 42.20005 | -89.09452 | 739 ft | 5 kts | 263° |
| 2026-04-24 04:01 | 42.20015 | -89.09500 | 739 ft | 5 kts | 310° |
| 2026-04-24 04:01 | 42.20040 | -89.09544 | 737 ft | 7 kts | 283° |
| 2026-04-24 04:01 | 42.20063 | -89.09598 | 737 ft | 6 kts | 338° |
| 2026-04-24 04:01 | 42.20095 | -89.09583 | 739 ft | 4 kts | 29° |
| 2026-04-24 04:02 | 42.20107 | -89.09574 | 740 ft | 1 kts | 30° |
| 2026-04-24 04:02 | 42.20111 | -89.09571 | 740 ft | 1 kts | 30° |
| 2026-04-24 04:02 | 42.20113 | -89.09569 | 740 ft | 0 kts | 30° |